createdAt,value
2022-11-06T00:00:47.960Z,94.78
2022-11-06T00:03:15.225Z,34.00
2022-11-06T00:06:02.123Z,58.22
2022-11-06T00:08:30.919Z,29.25
2022-11-06T00:10:58.146Z,26.98
2022-11-06T00:13:25.623Z,17.90
2022-11-06T00:15:52.836Z,22.60
2022-11-06T00:18:20.110Z,21.13
2022-11-06T00:20:47.330Z,16.23
2022-11-06T00:23:14.471Z,18.63
2022-11-06T00:25:41.830Z,20.52
2022-11-06T00:28:09.076Z,23.20
2022-11-06T00:30:36.300Z,16.98
2022-11-06T00:33:03.570Z,26.05
2022-11-06T00:35:30.804Z,27.38
2022-11-06T00:37:58.009Z,16.35
2022-11-06T00:40:25.273Z,21.92
2022-11-06T00:42:54.474Z,37.60
2022-11-06T00:45:21.695Z,19.65
2022-11-06T00:47:48.814Z,13.13
2022-11-06T00:50:16.204Z,18.13
2022-11-06T00:52:43.335Z,14.95
2022-11-06T00:55:10.848Z,26.63
2022-11-06T00:57:38.151Z,15.65
2022-11-06T01:00:05.493Z,15.40
2022-11-06T01:02:32.813Z,14.20
2022-11-06T01:05:00.043Z,17.63
2022-11-06T01:07:27.458Z,21.15
2022-11-06T01:09:54.644Z,26.40
2022-11-06T01:12:21.797Z,73.60
2022-11-06T01:14:49.043Z,20.83
2022-11-06T01:17:16.292Z,44.20
2022-11-06T01:19:43.578Z,27.77
2022-11-06T01:22:10.823Z,22.92
2022-11-06T01:24:38.171Z,23.83
2022-11-06T01:27:25.553Z,18.88
2022-11-06T01:29:52.623Z,21.77
2022-11-06T01:32:19.816Z,28.38
2022-11-06T01:34:47.103Z,31.63
2022-11-06T01:37:15.050Z,20.98
2022-11-06T01:39:42.487Z,17.52
2022-11-06T01:42:11.828Z,28.35
2022-11-06T01:44:42.008Z,29.30
2022-11-06T01:47:21.130Z,25.42
2022-11-06T01:49:48.889Z,16.48
2022-11-06T01:52:17.135Z,26.25
2022-11-06T01:54:44.895Z,18.05
2022-11-06T01:57:12.924Z,22.15
2022-11-06T01:59:42.992Z,28.05
2022-11-06T02:02:10.357Z,18.85
2022-11-06T02:04:39.445Z,19.67
2022-11-06T02:07:07.150Z,27.60
2022-11-06T02:09:35.162Z,26.23
2022-11-06T02:12:22.174Z,27.55
2022-11-06T02:15:07.625Z,28.63
2022-11-06T02:17:37.639Z,21.70
2022-11-06T02:20:05.059Z,30.10
2022-11-06T02:22:35.042Z,23.92
2022-11-06T02:25:08.066Z,19.05
2022-11-06T02:27:35.980Z,20.58
2022-11-06T02:30:08.489Z,29.63
2022-11-06T02:32:40.758Z,28.23
2022-11-06T02:35:16.275Z,24.75
2022-11-06T02:37:45.331Z,25.52
2022-11-06T02:40:13.324Z,27.90
2022-11-06T02:42:42.683Z,22.42
2022-11-06T02:45:11.861Z,23.13
2022-11-06T02:47:39.768Z,18.70
2022-11-06T02:50:07.115Z,20.52
2022-11-06T02:52:54.670Z,14.75
2022-11-06T02:55:28.409Z,30.52
2022-11-06T02:57:57.985Z,21.45
2022-11-06T03:00:25.320Z,19.48
2022-11-06T03:03:01.280Z,28.35
2022-11-06T03:05:34.185Z,21.40
2022-11-06T03:08:10.142Z,27.10
2022-11-06T03:10:42.295Z,20.98
2022-11-06T03:13:28.216Z,29.65
2022-11-06T03:16:13.604Z,26.42
2022-11-06T03:18:55.350Z,22.40
2022-11-06T03:21:25.243Z,30.05
2022-11-06T03:23:57.847Z,19.48
2022-11-06T03:26:31.688Z,22.00
2022-11-06T03:29:00.784Z,29.98
2022-11-06T03:31:33.278Z,26.77
2022-11-06T03:34:03.513Z,28.13
2022-11-06T03:36:37.294Z,29.25
2022-11-06T03:39:09.775Z,33.13
2022-11-06T03:41:49.170Z,32.57
2022-11-06T03:44:18.027Z,38.00
2022-11-06T03:46:48.801Z,33.75
2022-11-06T03:49:19.383Z,24.23
2022-11-06T03:51:50.436Z,26.42
2022-11-06T03:54:39.265Z,34.47
2022-11-06T03:57:10.490Z,31.88
2022-11-06T03:59:40.592Z,47.20
2022-11-06T04:02:07.970Z,35.90
2022-11-06T04:04:38.003Z,31.20
2022-11-06T04:07:13.208Z,45.25
2022-11-06T04:10:01.127Z,60.83
2022-11-06T04:12:49.016Z,53.88
2022-11-06T04:15:18.187Z,62.33
2022-11-06T04:17:45.326Z,77.05
2022-11-06T04:20:38.031Z,46.60
2022-11-06T04:23:23.915Z,59.72
2022-11-06T04:26:16.888Z,52.95
2022-11-06T04:28:47.599Z,49.45
2022-11-06T04:31:14.714Z,51.75
2022-11-06T04:33:58.328Z,52.97
2022-11-06T04:36:25.497Z,50.35
2022-11-06T04:38:56.372Z,32.03
2022-11-06T04:41:34.693Z,45.22
2022-11-06T04:44:08.135Z,35.53
2022-11-06T04:46:38.876Z,33.15
2022-11-06T04:49:06.950Z,39.88
2022-11-06T04:51:36.150Z,43.78
2022-11-06T04:54:03.735Z,29.75
2022-11-06T04:56:34.883Z,40.35
2022-11-06T04:59:03.022Z,40.63
2022-11-06T05:01:30.357Z,39.10
2022-11-06T05:03:57.661Z,29.98
2022-11-06T05:06:29.624Z,31.80
2022-11-06T05:08:58.355Z,36.07
2022-11-06T05:11:25.654Z,41.63
2022-11-06T05:13:52.946Z,41.30
2022-11-06T05:16:20.248Z,36.50
2022-11-06T05:18:47.456Z,41.60
2022-11-06T05:21:33.198Z,46.47
2022-11-06T05:24:00.335Z,44.60
2022-11-06T05:26:27.465Z,42.80
2022-11-06T05:28:54.632Z,38.60
2022-11-06T05:31:21.860Z,36.20
2022-11-06T05:33:49.135Z,58.10
2022-11-06T05:36:16.368Z,48.67
2022-11-06T05:38:43.610Z,42.42
2022-11-06T05:41:12.923Z,43.67
2022-11-06T05:43:40.205Z,40.80
2022-11-06T05:46:23.811Z,56.53
2022-11-06T05:48:54.903Z,49.13
2022-11-06T05:51:22.104Z,39.38
2022-11-06T05:53:49.267Z,50.13
2022-11-06T05:56:16.547Z,82.45
2022-11-06T05:58:43.780Z,45.45
2022-11-06T06:01:11.408Z,48.22
2022-11-06T06:03:38.556Z,53.42
2022-11-06T06:06:05.792Z,59.05
2022-11-06T06:08:33.171Z,77.05
2022-11-06T06:11:00.357Z,48.20
2022-11-06T06:13:27.511Z,34.88
2022-11-06T06:15:54.675Z,54.35
2022-11-06T06:18:21.890Z,35.13
2022-11-06T06:20:49.165Z,33.83
2022-11-06T06:23:16.379Z,31.00
2022-11-06T06:25:43.640Z,28.42
2022-11-06T06:28:11.132Z,27.35
2022-11-06T06:30:38.948Z,29.38
2022-11-06T06:33:06.679Z,27.67
2022-11-06T06:35:34.383Z,30.90
2022-11-06T06:38:01.794Z,26.00
2022-11-06T06:40:29.815Z,21.95
2022-11-06T06:42:57.626Z,33.60
2022-11-06T06:45:25.166Z,24.10
2022-11-06T06:47:52.496Z,24.80
2022-11-06T06:50:19.781Z,23.45
2022-11-06T06:52:47.402Z,23.83
2022-11-06T06:55:14.769Z,23.48
2022-11-06T06:57:42.035Z,26.15
2022-11-06T07:00:09.861Z,35.88
2022-11-06T07:02:36.980Z,26.25
2022-11-06T07:05:04.337Z,26.20
2022-11-06T07:07:32.523Z,22.73
2022-11-06T07:09:59.687Z,28.05
2022-11-06T07:12:26.897Z,23.20
2022-11-06T07:14:54.100Z,17.10
2022-11-06T07:17:21.321Z,21.13
2022-11-06T07:19:48.538Z,17.75
2022-11-06T07:22:15.853Z,21.77
2022-11-06T07:24:43.112Z,15.73
2022-11-06T07:27:11.375Z,15.75
2022-11-06T07:29:38.597Z,22.05
2022-11-06T07:32:09.043Z,19.17
2022-11-06T07:34:38.866Z,15.43
2022-11-06T07:37:07.668Z,14.25
2022-11-06T07:39:35.155Z,20.13
2022-11-06T07:42:02.335Z,19.63
2022-11-06T07:44:29.547Z,20.92
2022-11-06T07:46:56.697Z,24.77
2022-11-06T07:49:23.961Z,33.63
2022-11-06T07:51:51.090Z,24.23
2022-11-06T07:54:18.266Z,21.10
2022-11-06T07:56:45.440Z,19.02
2022-11-06T07:59:12.663Z,22.52
2022-11-06T08:01:40.026Z,23.08
2022-11-06T08:04:07.262Z,21.23
2022-11-06T08:06:34.479Z,23.48
2022-11-06T08:09:01.657Z,20.27
2022-11-06T08:11:28.860Z,19.40
2022-11-06T08:13:56.107Z,21.33
2022-11-06T08:16:23.722Z,17.27
2022-11-06T08:18:50.981Z,26.02
2022-11-06T08:21:18.115Z,35.72
2022-11-06T08:23:45.653Z,26.27
2022-11-06T08:26:13.034Z,38.08
2022-11-06T08:28:41.010Z,27.83
2022-11-06T08:31:08.800Z,19.65
2022-11-06T08:33:37.721Z,12.43
2022-11-06T08:36:05.556Z,21.05
2022-11-06T08:38:32.795Z,16.85
2022-11-06T08:41:04.685Z,9.40
2022-11-06T08:43:31.826Z,11.68
2022-11-06T08:46:00.147Z,7.25
2022-11-06T08:48:27.864Z,7.63
2022-11-06T08:50:55.022Z,8.27
2022-11-06T08:53:22.268Z,7.13
2022-11-06T08:55:49.610Z,14.18
2022-11-06T08:58:16.843Z,9.50
2022-11-06T09:00:44.173Z,5.88
2022-11-06T09:03:16.019Z,13.65
2022-11-06T09:05:45.039Z,11.45
2022-11-06T09:08:12.416Z,5.18
2022-11-06T09:10:40.237Z,3.33
2022-11-06T09:13:07.500Z,3.75
2022-11-06T09:15:34.758Z,3.40
2022-11-06T09:18:01.896Z,8.25
2022-11-06T09:20:31.238Z,2.88
2022-11-06T09:23:02.871Z,7.32
2022-11-06T09:25:31.566Z,27.38
2022-11-06T09:27:59.924Z,4.95
2022-11-06T09:30:31.021Z,2.60
2022-11-06T09:33:00.021Z,3.85
2022-11-06T09:35:28.259Z,4.00
2022-11-06T09:37:55.465Z,3.38
2022-11-06T09:40:26.629Z,3.28
2022-11-06T09:43:12.812Z,2.10
2022-11-06T09:45:41.244Z,6.38
2022-11-06T09:48:11.516Z,2.40
2022-11-06T09:50:45.444Z,2.08
2022-11-06T09:53:24.954Z,1.65
2022-11-06T09:55:52.268Z,5.78
2022-11-06T09:58:22.291Z,4.10
2022-11-06T10:00:51.542Z,2.88
2022-11-06T10:03:30.749Z,10.70
2022-11-06T10:05:57.913Z,4.15
2022-11-06T10:08:27.049Z,2.92
2022-11-06T10:11:13.227Z,13.25
2022-11-06T10:13:59.362Z,5.93
2022-11-06T10:17:02.062Z,16.77
2022-11-06T10:19:45.384Z,8.15
2022-11-06T10:22:16.571Z,2.95
2022-11-06T10:24:46.922Z,2.83
2022-11-06T10:27:18.448Z,4.78
2022-11-06T10:30:04.013Z,10.23
2022-11-06T10:32:38.512Z,5.53
2022-11-06T10:35:17.936Z,3.95
2022-11-06T10:38:04.445Z,3.45
2022-11-06T10:40:33.160Z,2.50
2022-11-06T10:43:15.394Z,5.05
2022-11-06T10:45:44.235Z,6.03
2022-11-06T10:48:28.920Z,3.13
2022-11-06T10:51:16.192Z,5.68
2022-11-06T10:53:54.222Z,19.33
2022-11-06T10:56:32.512Z,30.58
2022-11-06T10:58:59.844Z,23.00
2022-11-06T11:01:27.216Z,22.05
2022-11-06T11:03:54.526Z,17.25
2022-11-06T11:06:21.898Z,11.10
2022-11-06T11:08:52.628Z,6.55
2022-11-06T11:11:22.683Z,6.57
2022-11-06T11:13:49.881Z,3.83
2022-11-06T11:16:24.350Z,6.97
2022-11-06T11:18:52.135Z,6.18
2022-11-06T11:21:19.323Z,9.82
2022-11-06T11:23:46.946Z,4.53
2022-11-06T11:26:20.678Z,3.15
2022-11-06T11:28:56.889Z,4.72
2022-11-06T11:31:35.185Z,4.57
2022-11-06T11:34:08.037Z,6.75
2022-11-06T11:36:54.121Z,2.58
2022-11-06T11:39:22.866Z,5.32
2022-11-06T11:41:50.080Z,8.45
2022-11-06T11:44:18.812Z,6.13
2022-11-06T11:46:47.925Z,12.80
2022-11-06T11:49:30.536Z,11.45
2022-11-06T11:51:59.013Z,9.35
2022-11-06T11:54:27.356Z,4.10
2022-11-06T11:57:04.709Z,3.45
2022-11-06T11:59:38.430Z,5.47
2022-11-06T12:02:32.238Z,7.55
2022-11-06T12:05:00.613Z,5.90
2022-11-06T12:07:29.460Z,7.60
2022-11-06T12:09:56.805Z,25.52
2022-11-06T12:12:25.572Z,12.43
2022-11-06T12:15:06.524Z,24.17
2022-11-06T12:17:35.276Z,9.55
2022-11-06T12:20:03.829Z,42.33
2022-11-06T12:22:35.636Z,11.43
2022-11-06T12:25:16.300Z,4.30
2022-11-06T12:27:46.931Z,8.93
2022-11-06T12:30:21.303Z,3.95
2022-11-06T12:33:04.098Z,4.55
2022-11-06T12:35:42.932Z,5.22
2022-11-06T12:38:25.457Z,6.80
2022-11-06T12:41:15.960Z,4.13
2022-11-06T12:43:47.818Z,4.30
2022-11-06T12:46:21.542Z,10.50
2022-11-06T12:49:07.575Z,11.13
2022-11-06T12:51:44.707Z,48.58
2022-11-06T12:54:23.355Z,44.88
2022-11-06T12:57:10.736Z,50.13
2022-11-06T12:59:53.157Z,13.77
2022-11-06T13:02:25.385Z,14.60
2022-11-06T13:04:52.555Z,4.18
2022-11-06T13:07:41.039Z,26.98
2022-11-06T13:10:20.068Z,11.63
2022-11-06T13:13:04.915Z,69.40
2022-11-06T13:15:41.893Z,5.30
2022-11-06T13:18:21.356Z,19.42
2022-11-06T13:21:07.404Z,7.85
2022-11-06T13:23:45.522Z,25.08
2022-11-06T13:26:19.132Z,13.90
2022-11-06T13:31:17.654Z,17.73
2022-11-06T13:33:47.853Z,5.78
2022-11-06T13:36:15.388Z,5.22
2022-11-06T13:38:44.259Z,19.98
2022-11-06T13:41:20.170Z,4.43
2022-11-06T13:43:50.201Z,4.38
2022-11-06T13:46:17.333Z,14.57
2022-11-06T13:49:03.239Z,7.30
2022-11-06T13:51:30.363Z,5.18
2022-11-06T13:54:16.365Z,5.03
2022-11-06T13:56:43.660Z,3.50
2022-11-06T13:59:13.796Z,2.95
2022-11-06T14:01:49.633Z,4.25
2022-11-06T14:04:23.072Z,4.88
2022-11-06T14:06:54.265Z,6.50
2022-11-06T14:09:23.448Z,4.38
2022-11-06T14:11:58.217Z,5.55
2022-11-06T14:14:26.745Z,5.40
2022-11-06T14:17:10.467Z,5.53
2022-11-06T14:19:38.001Z,4.78
2022-11-06T14:22:24.112Z,5.13
2022-11-06T14:24:51.303Z,5.80
2022-11-06T14:27:24.512Z,4.95
2022-11-06T14:29:59.281Z,8.68
2022-11-06T14:32:26.388Z,5.63
2022-11-06T14:34:53.883Z,6.38
2022-11-06T14:37:21.038Z,5.65
2022-11-06T14:39:57.341Z,6.13
2022-11-06T14:42:27.270Z,8.38
2022-11-06T14:44:54.633Z,9.25
2022-11-06T14:47:33.222Z,10.65
2022-11-06T14:50:25.809Z,7.78
2022-11-06T14:52:59.187Z,9.05
2022-11-06T14:55:39.411Z,6.57
2022-11-06T14:58:18.057Z,8.98
2022-11-06T15:00:56.089Z,6.95
2022-11-06T15:03:35.018Z,6.85
2022-11-06T15:06:22.509Z,8.52
2022-11-06T15:08:49.758Z,8.27
2022-11-06T15:11:32.348Z,11.15
2022-11-06T15:14:02.202Z,7.05
2022-11-06T15:16:40.482Z,7.85
2022-11-06T15:19:12.603Z,4.43
2022-11-06T15:21:50.881Z,10.82
2022-11-06T15:24:29.276Z,6.57
2022-11-06T15:26:58.864Z,9.20
2022-11-06T15:29:27.034Z,6.88
2022-11-06T15:31:59.711Z,6.13
2022-11-06T15:34:31.662Z,6.57
2022-11-06T15:37:11.734Z,8.73
2022-11-06T15:42:36.211Z,10.25
2022-11-06T15:45:09.807Z,10.27
2022-11-06T15:50:13.419Z,11.35
2022-11-06T15:52:41.356Z,10.60
2022-11-06T15:55:23.377Z,8.80
2022-11-06T15:57:51.379Z,9.93
2022-11-06T16:00:26.104Z,10.15
2022-11-06T16:03:00.820Z,10.43
2022-11-06T16:05:29.179Z,8.52
2022-11-06T16:07:57.424Z,10.20
2022-11-06T16:10:25.086Z,9.52
2022-11-06T16:12:53.599Z,9.65
2022-11-06T16:15:39.686Z,11.52
2022-11-06T16:18:07.461Z,9.82
2022-11-06T16:20:34.909Z,9.45
2022-11-06T16:23:05.963Z,10.32
2022-11-06T16:25:33.443Z,8.27
2022-11-06T16:28:00.687Z,8.60
2022-11-06T16:30:30.640Z,9.80
2022-11-06T16:32:58.003Z,12.00
2022-11-06T16:35:35.776Z,9.88
2022-11-06T16:38:39.846Z,10.48
2022-11-06T16:41:06.367Z,8.88
2022-11-06T16:43:33.909Z,12.02
2022-11-06T16:46:08.478Z,9.70
2022-11-06T16:48:35.897Z,8.55
2022-11-06T16:51:04.982Z,9.52
2022-11-06T16:53:33.983Z,11.32
2022-11-06T16:56:02.619Z,8.88
2022-11-06T16:58:31.446Z,10.00
2022-11-06T17:01:03.123Z,9.73
2022-11-06T17:03:34.977Z,11.30
2022-11-06T17:06:02.268Z,12.93
2022-11-06T17:08:37.250Z,9.38
2022-11-06T17:11:13.550Z,10.77
2022-11-06T17:13:46.641Z,10.60
2022-11-06T17:16:15.186Z,12.23
2022-11-06T17:18:42.978Z,10.20
2022-11-06T17:21:13.369Z,11.95
2022-11-06T17:23:41.125Z,12.88
2022-11-06T17:26:20.868Z,11.63
2022-11-06T17:28:53.883Z,11.45
2022-11-06T17:31:21.592Z,14.02
2022-11-06T17:33:49.276Z,12.57
2022-11-06T17:36:16.994Z,11.15
2022-11-06T17:38:44.431Z,11.55
2022-11-06T17:41:11.698Z,11.10
2022-11-06T17:43:38.986Z,13.57
2022-11-06T17:46:07.382Z,10.80
2022-11-06T17:48:36.567Z,10.80
2022-11-06T17:51:22.856Z,11.27
2022-11-06T17:53:50.392Z,12.82
2022-11-06T17:56:17.625Z,10.75
2022-11-06T17:58:44.848Z,12.23
2022-11-06T18:01:14.418Z,11.38
2022-11-06T18:03:45.448Z,11.07
2022-11-06T18:06:16.674Z,10.05
2022-11-06T18:08:44.321Z,10.52
2022-11-06T18:11:12.090Z,14.15
2022-11-06T18:13:39.405Z,11.80
2022-11-06T18:16:15.526Z,11.57
2022-11-06T18:18:42.970Z,11.57
2022-11-06T18:21:10.345Z,12.43
2022-11-06T18:23:38.799Z,12.43
2022-11-06T18:26:06.143Z,12.55
2022-11-06T18:28:33.632Z,11.57
2022-11-06T18:31:01.177Z,11.82
2022-11-06T18:33:29.956Z,12.35
2022-11-06T18:36:01.585Z,13.32
2022-11-06T18:38:29.248Z,12.07
2022-11-06T18:40:56.963Z,12.00
2022-11-06T18:43:24.308Z,11.65
2022-11-06T18:45:51.753Z,14.32
2022-11-06T18:48:21.595Z,11.18
2022-11-06T18:50:49.704Z,13.70
2022-11-06T18:53:17.042Z,11.05
2022-11-06T18:55:45.919Z,11.40
2022-11-06T18:58:13.667Z,11.52
2022-11-06T19:00:41.042Z,13.25
2022-11-06T19:03:08.403Z,11.25
2022-11-06T19:05:35.706Z,11.93
2022-11-06T19:08:04.092Z,13.02
2022-11-06T19:10:32.553Z,12.73
2022-11-06T19:12:59.865Z,12.05
2022-11-06T19:15:27.228Z,11.50
2022-11-06T19:17:55.016Z,12.07
2022-11-06T19:20:22.739Z,12.35
2022-11-06T19:22:54.549Z,12.50
2022-11-06T19:25:22.665Z,10.90
2022-11-06T19:27:50.187Z,11.45
2022-11-06T19:30:17.478Z,10.35
2022-11-06T19:32:45.016Z,12.48
2022-11-06T19:35:13.883Z,12.77
2022-11-06T19:37:41.436Z,13.55
2022-11-06T19:40:09.027Z,11.00
2022-11-06T19:42:36.339Z,11.27
2022-11-06T19:45:05.920Z,12.60
2022-11-06T19:47:33.206Z,10.57
2022-11-06T19:50:00.562Z,12.00
2022-11-06T19:52:42.590Z,11.18
2022-11-06T19:57:54.484Z,11.73
2022-11-06T20:00:21.989Z,13.25
2022-11-06T20:02:51.034Z,12.00
2022-11-06T20:05:18.452Z,13.60
2022-11-06T20:07:45.838Z,12.82
2022-11-06T20:10:13.054Z,11.70
2022-11-06T20:12:40.282Z,12.23
2022-11-06T20:15:07.702Z,11.32
2022-11-06T20:17:35.019Z,12.98
2022-11-06T20:20:02.255Z,11.85
2022-11-06T20:22:29.705Z,12.82
2022-11-06T20:24:56.941Z,11.15
2022-11-06T20:27:24.190Z,11.68
2022-11-06T20:29:51.414Z,12.68
2022-11-06T20:32:19.373Z,10.82
2022-11-06T20:34:46.783Z,11.48
2022-11-06T20:37:14.043Z,13.50
2022-11-06T20:39:41.831Z,13.90
2022-11-06T20:42:10.198Z,11.68
2022-11-06T20:44:37.437Z,11.48
2022-11-06T20:47:04.757Z,11.52
2022-11-06T20:49:31.963Z,12.93
2022-11-06T20:52:15.460Z,14.90
2022-11-06T20:57:15.073Z,14.88
2022-11-06T20:59:42.329Z,13.85
2022-11-06T21:02:10.870Z,12.02
2022-11-06T21:04:38.857Z,11.93
2022-11-06T21:07:06.323Z,12.93
2022-11-06T21:09:33.641Z,11.95
2022-11-06T21:12:00.860Z,10.90
2022-11-06T21:14:28.147Z,11.68
2022-11-06T21:16:56.625Z,11.95
2022-11-06T21:19:24.442Z,10.27
2022-11-06T21:21:52.283Z,9.63
2022-11-06T21:24:20.694Z,11.10
2022-11-06T21:26:48.240Z,11.98
2022-11-06T21:29:15.507Z,9.98
2022-11-06T21:31:48.917Z,11.52
2022-11-06T21:34:17.206Z,11.18
2022-11-06T21:36:45.935Z,11.68
2022-11-06T21:39:14.624Z,11.32
2022-11-06T21:41:42.204Z,10.98
2022-11-06T21:44:13.075Z,10.45
2022-11-06T21:46:44.269Z,12.02
2022-11-06T21:49:12.819Z,9.98
2022-11-06T21:51:39.962Z,10.20
2022-11-06T21:54:25.992Z,13.10
2022-11-06T21:56:54.545Z,10.73
2022-11-06T21:59:24.985Z,9.95
2022-11-06T22:01:52.344Z,10.50
2022-11-06T22:04:19.582Z,12.35
2022-11-06T22:06:46.990Z,11.38
2022-11-06T22:09:14.670Z,10.85
2022-11-06T22:11:43.302Z,10.70
2022-11-06T22:14:15.042Z,12.07
2022-11-06T22:16:43.862Z,10.07
2022-11-06T22:19:11.182Z,13.27
2022-11-06T22:21:39.503Z,12.30
2022-11-06T22:24:07.223Z,10.40
2022-11-06T22:26:35.102Z,11.43
2022-11-06T22:29:03.840Z,11.48
2022-11-06T22:31:31.207Z,10.88
2022-11-06T22:33:58.472Z,12.85
2022-11-06T22:36:26.054Z,13.55
2022-11-06T22:38:53.885Z,11.85
2022-11-06T22:41:23.483Z,12.30
2022-11-06T22:43:50.837Z,10.55
2022-11-06T22:46:19.841Z,10.65
2022-11-06T22:48:47.477Z,12.82
2022-11-06T22:51:15.967Z,11.27
2022-11-06T22:53:43.324Z,12.50
2022-11-06T22:56:12.562Z,12.00
2022-11-06T22:58:40.243Z,12.35
2022-11-06T23:01:07.787Z,11.80
2022-11-06T23:03:35.020Z,13.20
2022-11-06T23:06:06.271Z,11.55
2022-11-06T23:08:34.391Z,12.35
2022-11-06T23:11:06.870Z,10.95
2022-11-06T23:13:34.015Z,13.27
2022-11-06T23:16:02.369Z,13.35
2022-11-06T23:18:29.562Z,14.48
2022-11-06T23:20:56.717Z,13.20
2022-11-06T23:23:24.253Z,13.88
2022-11-06T23:25:51.667Z,13.93
2022-11-06T23:28:19.238Z,11.75
2022-11-06T23:30:46.420Z,12.13
2022-11-06T23:33:13.940Z,12.15
2022-11-06T23:35:41.319Z,11.40
2022-11-06T23:38:08.496Z,12.05
2022-11-06T23:40:35.625Z,10.75
2022-11-06T23:43:02.844Z,11.48
2022-11-06T23:45:48.291Z,10.55
2022-11-06T23:48:16.262Z,10.10
2022-11-06T23:50:47.160Z,10.82
2022-11-06T23:53:17.849Z,12.82
2022-11-06T23:55:45.132Z,10.35
2022-11-06T23:58:12.353Z,13.05
